createdAt,value
2023-07-27T00:02:18.825Z,3.17
2023-07-27T00:04:50.339Z,2.57
2023-07-27T00:07:21.776Z,3.80
2023-07-27T00:09:53.176Z,3.97
2023-07-27T00:12:24.664Z,3.33
2023-07-27T00:14:56.405Z,3.57
2023-07-27T00:17:27.880Z,4.73
2023-07-27T00:19:59.285Z,6.00
2023-07-27T00:22:30.753Z,3.93
2023-07-27T00:25:02.135Z,4.17
2023-07-27T00:27:33.513Z,5.03
2023-07-27T00:30:05.496Z,3.83
2023-07-27T00:32:36.960Z,4.63
2023-07-27T00:35:08.553Z,5.73
2023-07-27T00:37:39.954Z,4.57
2023-07-27T00:40:11.804Z,4.53
2023-07-27T00:42:43.155Z,3.83
2023-07-27T00:45:14.637Z,3.63
2023-07-27T00:47:46.332Z,5.03
2023-07-27T00:50:17.786Z,4.87
2023-07-27T00:52:49.431Z,4.23
2023-07-27T00:55:20.874Z,5.40
2023-07-27T00:57:52.655Z,4.77
2023-07-27T01:00:24.084Z,4.63
2023-07-27T01:02:55.588Z,4.07
2023-07-27T01:05:27.561Z,5.67
2023-07-27T01:07:59.485Z,8.13
2023-07-27T01:10:38.027Z,3.23
2023-07-27T01:13:23.986Z,6.93
2023-07-27T01:16:05.823Z,4.70
2023-07-27T01:18:44.412Z,5.97
2023-07-27T01:21:20.356Z,6.93
2023-07-27T01:24:29.491Z,3.80
2023-07-27T01:27:20.880Z,3.23
2023-07-27T01:30:25.779Z,4.57
2023-07-27T01:33:01.871Z,4.63
2023-07-27T01:38:11.509Z,4.67
2023-07-27T01:40:43.724Z,4.60
2023-07-27T01:43:16.487Z,4.00
2023-07-27T01:45:49.125Z,5.33
2023-07-27T01:48:22.946Z,3.20
2023-07-27T01:50:56.656Z,4.03
2023-07-27T01:53:30.881Z,6.07
2023-07-27T01:56:05.443Z,4.33
2023-07-27T01:58:38.741Z,4.17
2023-07-27T02:01:10.362Z,6.67
2023-07-27T02:03:42.094Z,4.73
2023-07-27T02:06:13.576Z,4.13
2023-07-27T02:08:44.991Z,5.23
2023-07-27T02:11:19.943Z,4.60
2023-07-27T02:13:56.589Z,9.40
2023-07-27T02:16:33.491Z,6.23
2023-07-27T02:19:07.094Z,5.87
2023-07-27T02:21:39.589Z,4.97
2023-07-27T02:24:11.221Z,5.70
2023-07-27T02:26:43.386Z,4.90
2023-07-27T02:29:14.726Z,7.10
2023-07-27T02:31:46.147Z,6.43
2023-07-27T02:34:19.942Z,5.83
2023-07-27T02:36:51.296Z,5.37
2023-07-27T02:39:22.807Z,6.20
2023-07-27T02:41:54.169Z,6.00
2023-07-27T02:44:25.562Z,8.47
2023-07-27T02:46:56.953Z,5.90
2023-07-27T02:49:28.354Z,8.43
2023-07-27T02:52:00.036Z,8.40
2023-07-27T02:54:31.445Z,9.73
2023-07-27T02:57:02.959Z,9.53
2023-07-27T02:59:34.359Z,7.90
2023-07-27T03:02:06.222Z,7.60
2023-07-27T03:04:37.690Z,6.77
2023-07-27T03:07:10.123Z,9.47
2023-07-27T03:09:41.468Z,6.60
2023-07-27T03:12:13.117Z,6.93
2023-07-27T03:14:44.619Z,8.10
2023-07-27T03:17:16.027Z,7.03
2023-07-27T03:19:47.520Z,9.03
2023-07-27T03:22:18.963Z,10.57
2023-07-27T03:24:50.368Z,6.60
2023-07-27T03:27:21.768Z,8.53
2023-07-27T03:29:53.200Z,11.87
2023-07-27T03:32:24.613Z,8.10
2023-07-27T03:34:55.987Z,8.27
2023-07-27T03:37:27.427Z,11.90
2023-07-27T03:39:58.767Z,7.67
2023-07-27T03:42:30.160Z,10.97
2023-07-27T03:45:01.545Z,11.37
2023-07-27T03:47:33.056Z,8.27
2023-07-27T03:50:05.127Z,11.70
2023-07-27T03:52:36.831Z,8.20
2023-07-27T03:55:08.545Z,9.57
2023-07-27T03:57:40.414Z,8.07
2023-07-27T04:00:12.548Z,7.67
2023-07-27T04:02:43.979Z,9.53
2023-07-27T04:05:15.536Z,11.73
2023-07-27T04:07:50.636Z,12.50
2023-07-27T04:10:22.088Z,11.13
2023-07-27T04:12:53.582Z,10.10
2023-07-27T04:15:24.939Z,9.00
2023-07-27T04:17:56.430Z,11.90
2023-07-27T04:20:27.852Z,9.70
2023-07-27T04:22:59.230Z,10.80
2023-07-27T04:25:30.679Z,13.97
2023-07-27T04:28:02.042Z,9.47
2023-07-27T04:30:33.451Z,11.60
2023-07-27T04:33:04.951Z,8.03
2023-07-27T04:35:36.327Z,10.67
2023-07-27T04:38:07.692Z,9.50
2023-07-27T04:40:39.102Z,9.97
2023-07-27T04:43:10.622Z,9.77
2023-07-27T04:45:42.051Z,10.97
2023-07-27T04:48:13.423Z,9.10
2023-07-27T04:50:44.830Z,9.33
2023-07-27T04:53:16.217Z,9.67
2023-07-27T04:55:47.852Z,7.73
2023-07-27T04:58:19.238Z,8.93
2023-07-27T05:00:55.044Z,8.27
2023-07-27T05:03:26.637Z,8.98
2023-07-27T05:05:57.961Z,10.03
2023-07-27T05:08:30.522Z,7.87
2023-07-27T05:11:07.369Z,7.27
2023-07-27T05:13:38.770Z,9.30
2023-07-27T05:16:10.226Z,9.37
2023-07-27T05:18:41.657Z,6.67
2023-07-27T05:21:14.566Z,7.53
2023-07-27T05:23:46.410Z,9.53
2023-07-27T05:26:17.716Z,6.90
2023-07-27T05:28:49.118Z,6.07
2023-07-27T05:31:20.515Z,7.33
2023-07-27T05:33:52.030Z,5.97
2023-07-27T05:36:23.416Z,6.60
2023-07-27T05:38:55.606Z,6.33
2023-07-27T05:41:27.006Z,6.37
2023-07-27T05:43:58.392Z,7.30
2023-07-27T05:46:29.748Z,20.90
2023-07-27T05:49:01.139Z,6.27
2023-07-27T05:51:32.479Z,4.20
2023-07-27T05:54:04.154Z,6.87
2023-07-27T05:56:35.870Z,8.57
2023-07-27T05:59:07.515Z,5.67
2023-07-27T06:01:38.996Z,5.93
2023-07-27T06:04:10.561Z,7.03
2023-07-27T06:06:46.016Z,7.07
2023-07-27T06:09:17.485Z,7.55
2023-07-27T06:11:48.928Z,6.30
2023-07-27T06:14:20.325Z,6.80
2023-07-27T06:16:51.679Z,7.30
2023-07-27T06:19:23.070Z,4.77
2023-07-27T06:21:54.776Z,7.03
2023-07-27T06:24:26.180Z,7.23
2023-07-27T06:26:57.634Z,7.13
2023-07-27T06:29:29.005Z,6.80
2023-07-27T06:32:02.114Z,6.67
2023-07-27T06:34:33.479Z,7.93
2023-07-27T06:37:06.818Z,5.90
2023-07-27T06:39:38.253Z,6.93
2023-07-27T06:42:09.768Z,8.93
2023-07-27T06:44:41.143Z,6.13
2023-07-27T06:47:12.674Z,6.18
2023-07-27T06:49:44.095Z,5.77
2023-07-27T06:52:15.473Z,8.52
2023-07-27T06:54:46.794Z,7.40
2023-07-27T06:57:18.192Z,5.97
2023-07-27T06:59:49.730Z,7.30
2023-07-27T07:02:21.102Z,4.80
2023-07-27T07:04:52.437Z,5.73
2023-07-27T07:07:24.462Z,7.80
2023-07-27T07:09:55.849Z,9.77
2023-07-27T07:12:27.396Z,5.93
2023-07-27T07:14:58.785Z,8.27
2023-07-27T07:17:30.205Z,6.10
2023-07-27T07:20:01.621Z,8.07
2023-07-27T07:22:33.737Z,8.73
2023-07-27T07:25:05.492Z,7.00
2023-07-27T07:27:36.923Z,6.77
2023-07-27T07:30:09.177Z,5.43
2023-07-27T07:32:40.643Z,7.03
2023-07-27T07:35:13.123Z,6.43
2023-07-27T07:37:45.187Z,6.50
2023-07-27T07:40:18.426Z,6.87
2023-07-27T07:42:49.990Z,7.57
2023-07-27T07:45:21.373Z,7.05
2023-07-27T07:47:52.909Z,8.93
2023-07-27T07:50:25.306Z,7.93
2023-07-27T07:52:56.912Z,8.82
2023-07-27T07:55:28.701Z,7.70
2023-07-27T07:58:00.078Z,11.40
2023-07-27T08:00:31.448Z,7.25
2023-07-27T08:03:03.060Z,7.72
2023-07-27T08:05:34.474Z,6.80
2023-07-27T08:08:05.994Z,8.45
2023-07-27T08:10:37.443Z,8.57
2023-07-27T08:13:08.904Z,7.40
2023-07-27T08:15:40.396Z,5.50
2023-07-27T08:18:11.830Z,9.95
2023-07-27T08:20:43.229Z,6.47
2023-07-27T08:23:14.568Z,6.25
2023-07-27T08:25:45.980Z,6.38
2023-07-27T08:28:17.363Z,7.05
2023-07-27T08:30:49.674Z,7.75
2023-07-27T08:33:21.048Z,6.15
2023-07-27T08:35:53.004Z,9.13
2023-07-27T08:38:25.675Z,6.25
2023-07-27T08:40:58.701Z,7.45
2023-07-27T08:43:30.232Z,5.10
2023-07-27T08:46:03.488Z,6.43
2023-07-27T08:48:35.601Z,6.15
2023-07-27T08:51:07.500Z,7.50
2023-07-27T08:53:38.943Z,8.32
2023-07-27T08:56:10.288Z,6.45
2023-07-27T08:58:42.142Z,7.88
2023-07-27T09:01:14.766Z,11.15
2023-07-27T09:03:47.171Z,7.65
2023-07-27T09:06:36.760Z,8.23
2023-07-27T09:09:23.725Z,6.35
2023-07-27T09:11:55.708Z,6.97
2023-07-27T09:14:27.186Z,6.80
2023-07-27T09:16:58.821Z,6.88
2023-07-27T09:19:40.141Z,8.77
2023-07-27T09:22:14.750Z,7.25
2023-07-27T09:24:46.214Z,8.38
2023-07-27T09:27:17.631Z,8.65
2023-07-27T09:29:57.895Z,5.93
2023-07-27T09:32:36.489Z,6.60
2023-07-27T09:35:13.608Z,7.22
2023-07-27T09:37:47.158Z,7.30
2023-07-27T09:40:21.325Z,8.43
2023-07-27T09:42:52.989Z,7.82
2023-07-27T09:45:24.551Z,6.00
2023-07-27T09:47:56.133Z,7.32
2023-07-27T09:50:29.185Z,7.20
2023-07-27T09:53:02.282Z,6.47
2023-07-27T09:55:34.016Z,8.60
2023-07-27T09:58:05.952Z,6.28
2023-07-27T10:00:37.461Z,7.25
2023-07-27T10:03:10.642Z,8.80
2023-07-27T10:05:44.186Z,7.53
2023-07-27T10:08:17.764Z,7.03
2023-07-27T10:10:54.548Z,7.53
2023-07-27T10:13:25.887Z,7.25
2023-07-27T10:15:58.074Z,7.13
2023-07-27T10:18:32.943Z,4.95
2023-07-27T10:21:28.244Z,8.40
2023-07-27T10:24:01.821Z,6.95
2023-07-27T10:26:53.320Z,5.50
2023-07-27T10:29:28.167Z,6.63
2023-07-27T10:32:07.691Z,8.35
2023-07-27T10:34:42.457Z,7.30
2023-07-27T10:37:15.292Z,7.25
2023-07-27T10:39:53.475Z,5.45
2023-07-27T10:42:27.671Z,6.10
2023-07-27T10:44:59.605Z,6.95
2023-07-27T10:47:39.013Z,6.47
2023-07-27T10:50:11.119Z,5.35
2023-07-27T10:52:42.903Z,7.50
2023-07-27T10:55:14.421Z,6.13
2023-07-27T10:57:47.826Z,6.57
2023-07-27T11:00:19.203Z,5.78
2023-07-27T11:02:51.266Z,8.75
2023-07-27T11:05:23.442Z,5.93
2023-07-27T11:08:02.632Z,4.55
2023-07-27T11:10:34.140Z,4.47
2023-07-27T11:13:05.654Z,6.03
2023-07-27T11:15:37.249Z,5.07
2023-07-27T11:18:08.720Z,5.10
2023-07-27T11:20:42.333Z,4.18
2023-07-27T11:23:13.729Z,5.82
2023-07-27T11:25:45.336Z,4.88
2023-07-27T11:28:17.476Z,3.97
2023-07-27T11:30:53.745Z,6.80
2023-07-27T11:33:33.888Z,4.82
2023-07-27T11:36:06.114Z,5.30
2023-07-27T11:38:37.831Z,4.38
2023-07-27T11:41:41.240Z,4.00
2023-07-27T11:44:02.006Z,4.93
2023-07-27T11:46:43.276Z,5.95
2023-07-27T11:49:16.129Z,4.07
2023-07-27T11:51:49.069Z,5.40
2023-07-27T11:54:28.302Z,3.60
2023-07-27T11:57:03.272Z,5.22
2023-07-27T11:59:36.059Z,5.13
2023-07-27T12:02:07.598Z,3.15
2023-07-27T12:04:39.158Z,3.72
2023-07-27T12:07:11.808Z,7.68
2023-07-27T12:09:43.234Z,4.35
2023-07-27T12:12:15.681Z,5.28
2023-07-27T12:14:47.197Z,4.30
2023-07-27T12:22:34.427Z,4.78
2023-07-27T12:27:40.715Z,4.20
2023-07-27T12:32:48.562Z,3.07
2023-07-27T12:37:55.842Z,2.72
2023-07-27T12:43:01.976Z,3.78
2023-07-27T12:45:33.412Z,3.78
2023-07-27T12:48:05.067Z,2.13
2023-07-27T12:50:36.576Z,2.28
2023-07-27T12:53:08.905Z,2.20
2023-07-27T12:55:41.173Z,3.22
2023-07-27T12:58:12.651Z,2.80
2023-07-27T13:00:45.480Z,3.10
2023-07-27T13:03:17.034Z,2.53
2023-07-27T13:05:48.426Z,2.50
2023-07-27T13:08:19.784Z,1.98
2023-07-27T13:10:51.124Z,2.35
2023-07-27T13:13:22.530Z,2.55
2023-07-27T13:15:54.417Z,3.17
2023-07-27T13:18:25.896Z,2.55
2023-07-27T13:20:57.413Z,3.30
2023-07-27T13:23:28.772Z,3.10
2023-07-27T13:26:06.746Z,2.17
2023-07-27T13:28:38.234Z,2.30
2023-07-27T13:31:12.354Z,2.40
2023-07-27T13:33:43.812Z,1.70
2023-07-27T13:36:15.510Z,2.10
2023-07-27T13:38:46.972Z,2.65
2023-07-27T13:41:18.330Z,2.00
2023-07-27T13:43:50.785Z,2.15
2023-07-27T13:46:23.418Z,2.83
2023-07-27T13:48:54.813Z,1.92
2023-07-27T13:51:26.218Z,1.80
2023-07-27T13:53:57.605Z,2.25
2023-07-27T13:56:29.080Z,1.40
2023-07-27T13:59:00.610Z,1.80
2023-07-27T14:01:32.285Z,2.22
2023-07-27T14:04:04.008Z,1.80
2023-07-27T14:06:35.463Z,2.53
2023-07-27T14:09:06.897Z,2.15
2023-07-27T14:11:38.511Z,1.50
2023-07-27T14:14:10.100Z,1.58
2023-07-27T14:16:41.623Z,4.70
2023-07-27T14:19:13.002Z,1.60
2023-07-27T14:21:44.390Z,3.50
2023-07-27T14:24:15.997Z,1.33
2023-07-27T14:26:47.444Z,1.42
2023-07-27T14:29:18.911Z,1.67
2023-07-27T14:31:50.404Z,1.63
2023-07-27T14:34:23.108Z,1.58
2023-07-27T14:36:55.082Z,2.83
2023-07-27T14:42:04.395Z,2.13
2023-07-27T14:44:35.946Z,2.20
2023-07-27T14:47:09.031Z,1.52
2023-07-27T14:49:40.559Z,1.67
2023-07-27T14:52:11.901Z,1.63
2023-07-27T14:54:43.283Z,1.58
2023-07-27T14:57:14.789Z,2.50
2023-07-27T14:59:58.001Z,1.58
2023-07-27T15:02:45.274Z,2.25
2023-07-27T15:05:18.981Z,1.20
2023-07-27T15:07:50.522Z,2.55
2023-07-27T15:10:31.396Z,1.98
2023-07-27T15:13:03.733Z,1.63
2023-07-27T15:15:35.829Z,1.75
2023-07-27T15:18:10.394Z,2.42
2023-07-27T15:20:43.194Z,2.10
2023-07-27T15:23:15.426Z,1.50
2023-07-27T15:25:55.007Z,2.08
2023-07-27T15:28:27.266Z,1.80
2023-07-27T15:30:58.829Z,1.52
2023-07-27T15:33:30.650Z,2.33
2023-07-27T15:36:02.210Z,2.47
2023-07-27T15:38:33.612Z,1.95
2023-07-27T15:41:05.026Z,2.90
2023-07-27T15:43:36.462Z,1.90
2023-07-27T15:46:07.936Z,3.22
2023-07-27T15:48:39.315Z,3.42
2023-07-27T15:51:10.900Z,3.60
2023-07-27T15:53:43.492Z,2.88
2023-07-27T15:56:15.030Z,2.05
2023-07-27T15:58:46.398Z,2.08
2023-07-27T16:01:18.832Z,1.90
2023-07-27T16:03:50.254Z,1.60
2023-07-27T16:06:21.711Z,1.27
2023-07-27T16:08:53.033Z,1.08
2023-07-27T16:11:24.511Z,1.40
2023-07-27T16:13:55.895Z,1.48
2023-07-27T16:16:27.269Z,1.45
2023-07-27T16:18:58.780Z,2.40
2023-07-27T16:21:30.532Z,2.17
2023-07-27T16:24:03.129Z,2.47
2023-07-27T16:26:34.836Z,2.22
2023-07-27T16:29:06.759Z,2.20
2023-07-27T16:31:38.838Z,1.63
2023-07-27T16:34:10.204Z,2.55
2023-07-27T16:36:41.666Z,2.90
2023-07-27T16:39:13.028Z,3.75
2023-07-27T16:41:44.597Z,2.00
2023-07-27T16:44:17.095Z,1.90
2023-07-27T16:46:48.571Z,2.85
2023-07-27T16:49:20.770Z,2.42
2023-07-27T16:51:52.230Z,4.18
2023-07-27T16:54:23.618Z,2.95
2023-07-27T16:56:55.045Z,1.70
2023-07-27T16:59:26.752Z,2.15
2023-07-27T17:01:58.358Z,2.25
2023-07-27T17:04:29.901Z,2.97
2023-07-27T17:07:01.262Z,2.60
2023-07-27T17:09:32.772Z,1.65
2023-07-27T17:12:05.781Z,2.13
2023-07-27T17:14:38.961Z,2.58
2023-07-27T17:17:10.333Z,2.15
2023-07-27T17:19:41.663Z,1.45
2023-07-27T17:22:13.073Z,3.53
2023-07-27T17:24:44.575Z,2.58
2023-07-27T17:27:16.051Z,3.90
2023-07-27T17:29:47.732Z,1.15
2023-07-27T17:32:19.114Z,3.10
2023-07-27T17:34:50.722Z,2.72
2023-07-27T17:37:22.101Z,2.90
2023-07-27T17:39:53.606Z,3.47
2023-07-27T17:42:25.197Z,3.28
2023-07-27T17:44:56.637Z,1.52
2023-07-27T17:47:28.131Z,1.65
2023-07-27T17:49:59.848Z,4.63
2023-07-27T17:52:31.353Z,1.85
2023-07-27T17:55:03.600Z,2.30
2023-07-27T17:57:35.010Z,2.03
2023-07-27T18:00:07.158Z,1.38
2023-07-27T18:02:38.680Z,1.60
2023-07-27T18:05:10.211Z,3.22
2023-07-27T18:07:41.858Z,1.90
2023-07-27T18:10:13.385Z,3.35
2023-07-27T18:12:44.785Z,1.98
2023-07-27T18:15:16.365Z,1.88
2023-07-27T18:17:47.743Z,1.20
2023-07-27T18:20:19.150Z,1.48
2023-07-27T18:22:53.391Z,2.00
2023-07-27T18:25:24.820Z,1.40
2023-07-27T18:27:56.253Z,1.73
2023-07-27T18:30:28.009Z,2.53
2023-07-27T18:32:59.402Z,2.95
2023-07-27T18:35:30.776Z,2.05
2023-07-27T18:38:02.128Z,1.15
2023-07-27T18:40:33.458Z,1.02
2023-07-27T18:43:05.149Z,1.08
2023-07-27T18:45:52.902Z,1.80
2023-07-27T18:48:24.589Z,1.45
2023-07-27T18:50:56.449Z,1.95
2023-07-27T18:53:27.941Z,1.50
2023-07-27T18:55:59.660Z,2.00
2023-07-27T18:58:30.995Z,1.95
2023-07-27T19:01:02.708Z,1.50
2023-07-27T19:03:37.315Z,2.25
2023-07-27T19:06:10.821Z,1.42
2023-07-27T19:08:43.008Z,1.52
2023-07-27T19:11:14.404Z,1.85
2023-07-27T19:13:46.400Z,6.18
2023-07-27T19:16:17.964Z,1.65
2023-07-27T19:18:49.398Z,2.13
2023-07-27T19:21:20.944Z,2.38
2023-07-27T19:23:52.421Z,2.13
2023-07-27T19:26:24.178Z,2.45
2023-07-27T19:28:55.585Z,2.30
2023-07-27T19:31:27.112Z,1.65
2023-07-27T19:33:58.662Z,2.47
2023-07-27T19:36:30.147Z,2.60
2023-07-27T19:39:01.695Z,4.03
2023-07-27T19:41:33.145Z,2.42
2023-07-27T19:44:04.792Z,2.17
2023-07-27T19:46:37.875Z,2.33
2023-07-27T19:49:09.649Z,2.40
2023-07-27T19:51:41.126Z,3.78
2023-07-27T19:54:12.574Z,3.22
2023-07-27T19:56:43.999Z,3.28
2023-07-27T19:59:15.351Z,2.80
2023-07-27T20:01:46.703Z,4.10
2023-07-27T20:04:18.056Z,2.53
2023-07-27T20:06:49.407Z,4.20
2023-07-27T20:09:21.348Z,2.72
2023-07-27T20:11:52.691Z,2.80
2023-07-27T20:14:35.231Z,2.58
2023-07-27T20:17:07.479Z,3.50
2023-07-27T20:19:39.212Z,3.92
2023-07-27T20:22:10.625Z,5.28
2023-07-27T20:24:43.760Z,6.13
2023-07-27T20:27:15.449Z,2.90
2023-07-27T20:29:46.961Z,2.80
2023-07-27T20:32:18.404Z,4.22
2023-07-27T20:34:50.018Z,3.38
2023-07-27T20:37:21.389Z,3.42
2023-07-27T20:39:53.015Z,3.03
2023-07-27T20:42:24.376Z,3.05
2023-07-27T20:44:55.762Z,3.58
2023-07-27T20:47:27.817Z,3.40
2023-07-27T20:49:59.363Z,4.40
2023-07-27T20:52:30.787Z,3.42
2023-07-27T20:55:02.187Z,2.13
2023-07-27T20:57:33.493Z,2.42
2023-07-27T21:00:06.675Z,2.72
2023-07-27T21:02:38.150Z,2.13
2023-07-27T21:05:10.243Z,2.17
2023-07-27T21:07:41.880Z,3.13
2023-07-27T21:10:13.722Z,4.10
2023-07-27T21:12:45.144Z,1.90
2023-07-27T21:15:16.485Z,2.55
2023-07-27T21:17:47.891Z,1.98
2023-07-27T21:20:19.423Z,2.58
2023-07-27T21:22:50.793Z,2.15
2023-07-27T21:25:22.150Z,2.30
2023-07-27T21:27:53.798Z,2.42
2023-07-27T21:30:27.586Z,1.90
2023-07-27T21:32:59.032Z,2.00
2023-07-27T21:35:30.450Z,2.40
2023-07-27T21:38:01.850Z,2.05
2023-07-27T21:40:35.584Z,2.67
2023-07-27T21:43:06.941Z,1.65
2023-07-27T21:45:38.482Z,1.95
2023-07-27T21:48:10.044Z,1.40
2023-07-27T21:50:44.303Z,2.95
2023-07-27T21:53:16.809Z,2.28
2023-07-27T21:55:48.440Z,2.63
2023-07-27T21:58:21.070Z,2.88
2023-07-27T22:00:52.548Z,2.90
2023-07-27T22:03:23.935Z,2.22
2023-07-27T22:05:55.357Z,2.78
2023-07-27T22:08:27.008Z,1.90
2023-07-27T22:10:58.399Z,1.10
2023-07-27T22:13:29.803Z,1.55
2023-07-27T22:16:01.286Z,1.67
2023-07-27T22:18:32.779Z,1.08
2023-07-27T22:21:10.858Z,2.03
2023-07-27T22:23:42.395Z,1.10
2023-07-27T22:26:18.171Z,1.33
2023-07-27T22:28:50.664Z,0.95
2023-07-27T22:31:22.145Z,1.20
2023-07-27T22:33:53.716Z,1.25
2023-07-27T22:36:25.377Z,1.88
2023-07-27T22:38:56.722Z,1.00
2023-07-27T22:41:28.109Z,1.15
2023-07-27T22:43:59.709Z,3.10
2023-07-27T22:46:31.163Z,1.00
2023-07-27T22:49:02.673Z,1.00
2023-07-27T22:51:34.399Z,6.57
2023-07-27T22:54:06.101Z,1.90
2023-07-27T22:56:37.508Z,1.05
2023-07-27T22:59:08.893Z,2.15
2023-07-27T23:01:40.315Z,2.08
2023-07-27T23:04:11.696Z,2.58
2023-07-27T23:06:43.863Z,3.63
2023-07-27T23:09:15.323Z,5.07
2023-07-27T23:11:46.875Z,0.82
2023-07-27T23:14:19.037Z,2.50
2023-07-27T23:16:50.440Z,4.75
2023-07-27T23:19:21.849Z,3.03
2023-07-27T23:21:53.254Z,3.25
2023-07-27T23:24:24.704Z,0.98
2023-07-27T23:26:56.115Z,2.30
2023-07-27T23:29:27.604Z,3.45
2023-07-27T23:31:58.924Z,0.63
2023-07-27T23:34:30.273Z,0.73
2023-07-27T23:37:01.723Z,0.75
2023-07-27T23:39:33.158Z,0.98
2023-07-27T23:42:04.847Z,1.33
2023-07-27T23:44:36.442Z,0.88
2023-07-27T23:47:07.805Z,2.08
2023-07-27T23:49:39.404Z,0.82
2023-07-27T23:52:10.814Z,1.33
2023-07-27T23:54:42.195Z,1.75
2023-07-27T23:57:14.145Z,1.40
2023-07-27T23:59:45.740Z,1.48
